Time,TemperatureF,DewpointF,PressureIn,WindDirection,WindDirectionDegrees,WindSpeedMPH,WindSpeedGustMPH,Humidity,HourlyPrecipIn,Conditions,Clouds,dailyrainin,SoftwareType,DateUTC
2013-05-14 00:01:00,60.0,57.0,29.54,WNW,284,16.0,-999.0,90,-99.99,,,-99.99,,2013-05-14 06:01:00,
2013-05-14 00:12:00,60.0,57.0,29.54,WNW,284,16.0,-999.0,90,-99.99,,,-99.99,,2013-05-14 06:12:00,
2013-05-14 00:22:00,60.0,57.0,29.57,West,267,17.0,-999.0,89,-99.99,,,-99.99,,2013-05-14 06:22:00,
2013-05-14 00:32:00,59.0,56.0,29.55,West,281,6.0,-999.0,90,-99.99,,,-99.99,,2013-05-14 06:32:00,
2013-05-14 00:42:00,59.0,56.0,29.55,West,281,6.0,-999.0,90,-99.99,,,-99.99,,2013-05-14 06:42:00,
2013-05-14 00:51:00,59.0,56.0,29.55,WSW,248,4.0,-999.0,91,-99.99,,,-99.99,,2013-05-14 06:51:00,
2013-05-14 01:02:00,59.0,56.0,29.54,WSW,244,4.0,-999.0,91,-99.99,,,-99.99,,2013-05-14 07:02:00,
2013-05-14 01:11:00,59.0,56.0,29.54,WSW,244,4.0,-999.0,91,-99.99,,,-99.99,,2013-05-14 07:11:00,
2013-05-14 01:21:00,60.0,56.0,29.55,WSW,240,10.0,-999.0,88,-99.99,,,-99.99,,2013-05-14 07:21:00,
2013-05-14 01:32:00,60.0,55.0,29.56,SW,232,12.0,-999.0,85,-99.99,,,-99.99,,2013-05-14 07:32:00,
2013-05-14 01:42:00,60.0,55.0,29.55,WSW,244,7.0,-999.0,85,-99.99,,,-99.99,,2013-05-14 07:42:00,
2013-05-14 01:52:00,60.0,55.0,29.55,WSW,244,7.0,-999.0,85,-99.99,,,-99.99,,2013-05-14 07:52:00,
2013-05-14 02:02:00,59.0,54.0,29.55,WSW,242,4.0,-999.0,85,-99.99,,,-99.99,,2013-05-14 08:02:00,
2013-05-14 02:11:00,59.0,54.0,29.55,WSW,242,4.0,-999.0,85,-99.99,,,-99.99,,2013-05-14 08:11:00,
2013-05-14 02:21:00,59.0,52.0,29.56,SSW,202,6.0,-999.0,79,-99.99,,,-99.99,,2013-05-14 08:21:00,
2013-05-14 02:32:00,60.0,46.0,29.55,SW,217,19.0,-999.0,59,-99.99,,,-99.99,,2013-05-14 08:32:00,
2013-05-14 02:41:00,60.0,45.0,29.56,WSW,248,23.0,-999.0,58,-99.99,,,-99.99,,2013-05-14 08:41:00,
2013-05-14 02:52:00,60.0,45.0,29.56,WSW,248,23.0,-999.0,58,-99.99,,,-99.99,,2013-05-14 08:52:00,
2013-05-14 03:02:00,59.0,45.0,29.57,SW,231,25.0,-999.0,59,-99.99,,,-99.99,,2013-05-14 09:02:00,
2013-05-14 03:11:00,59.0,45.0,29.57,SW,231,25.0,-999.0,59,-99.99,,,-99.99,,2013-05-14 09:11:00,
2013-05-14 03:22:00,59.0,45.0,29.59,SW,221,26.0,-999.0,59,-99.99,,,-99.99,,2013-05-14 09:22:00,
2013-05-14 03:32:00,58.0,43.0,29.59,SW,220,23.0,-999.0,58,-99.99,,,-99.99,,2013-05-14 09:32:00,
2013-05-14 03:44:00,58.0,43.0,29.59,SW,220,23.0,-999.0,58,-99.99,,,-99.99,,2013-05-14 09:44:00,
2013-05-14 03:54:00,58.0,42.0,29.59,WSW,247,25.0,-999.0,55,-99.99,,,-99.99,,2013-05-14 09:54:00,
2013-05-14 04:04:00,57.0,40.0,29.59,SW,232,22.0,-999.0,53,-99.99,,,-99.99,,2013-05-14 10:04:00,
2013-05-14 04:14:00,57.0,40.0,29.59,SW,232,22.0,-999.0,53,-99.99,,,-99.99,,2013-05-14 10:14:00,
2013-05-14 04:25:00,56.0,41.0,29.59,SSW,211,20.0,-999.0,56,-99.99,,,-99.99,,2013-05-14 10:25:00,
2013-05-14 04:33:00,57.0,41.0,29.59,SW,231,23.0,-999.0,54,-99.99,,,-99.99,,2013-05-14 10:33:00,
2013-05-14 04:42:00,57.0,41.0,29.59,SW,231,23.0,-999.0,54,-99.99,,,-99.99,,2013-05-14 10:42:00,
2013-05-14 04:52:00,57.0,39.0,29.59,SW,229,22.0,-999.0,51,-99.99,,,-99.99,,2013-05-14 10:52:00,
2013-05-14 05:02:00,56.0,39.0,29.59,SW,222,26.0,-999.0,53,-99.99,,,-99.99,,2013-05-14 11:02:00,
2013-05-14 05:11:00,56.0,39.0,29.59,SW,222,26.0,-999.0,53,-99.99,,,-99.99,,2013-05-14 11:11:00,
2013-05-14 05:21:00,56.0,39.0,29.60,SW,230,26.0,-999.0,53,-99.99,,,-99.99,,2013-05-14 11:21:00,
2013-05-14 05:32:00,55.0,39.0,29.60,SW,232,22.0,-999.0,54,-99.99,,,-99.99,,2013-05-14 11:32:00,
2013-05-14 05:43:00,55.0,39.0,29.60,SW,232,22.0,-999.0,54,-99.99,,,-99.99,,2013-05-14 11:43:00,
2013-05-14 05:52:00,55.0,38.0,29.60,SW,220,21.0,-999.0,53,-99.99,,,-99.99,,2013-05-14 11:52:00,
2013-05-14 06:02:00,55.0,39.0,29.61,SW,215,18.0,-999.0,54,-99.99,,,-99.99,,2013-05-14 12:02:00,
2013-05-14 06:12:00,55.0,39.0,29.61,SW,215,18.0,-999.0,54,-99.99,,,-99.99,,2013-05-14 12:12:00,
2013-05-14 06:21:00,56.0,38.0,29.61,WSW,244,22.0,-999.0,51,-99.99,,,-99.99,,2013-05-14 12:21:00,
2013-05-14 06:32:00,57.0,39.0,29.62,SW,236,24.0,-999.0,51,-99.99,,,-99.99,,2013-05-14 12:32:00,
2013-05-14 06:42:00,57.0,39.0,29.62,SW,236,24.0,-999.0,51,-99.99,,,-99.99,,2013-05-14 12:42:00,
2013-05-14 06:51:00,57.0,39.0,29.62,WSW,242,26.0,-999.0,50,-99.99,,,-99.99,,2013-05-14 12:51:00,
2013-05-14 07:01:00,57.0,40.0,29.63,West,259,24.0,-999.0,52,-99.99,,,-99.99,,2013-05-14 13:01:00,
2013-05-14 07:11:00,57.0,40.0,29.63,West,259,24.0,-999.0,52,-99.99,,,-99.99,,2013-05-14 13:11:00,
2013-05-14 07:22:00,57.0,39.0,29.64,WSW,237,26.0,-999.0,51,-99.99,,,-99.99,,2013-05-14 13:22:00,
2013-05-14 07:32:00,57.0,40.0,29.65,WSW,245,25.0,-999.0,52,-99.99,,,-99.99,,2013-05-14 13:32:00,
2013-05-14 07:41:00,57.0,40.0,29.65,WSW,245,25.0,-999.0,52,-99.99,,,-99.99,,2013-05-14 13:41:00,
2013-05-14 07:52:00,57.0,40.0,29.65,WSW,245,25.0,-999.0,52,-99.99,,,-99.99,,2013-05-14 13:52:00,
2013-05-14 08:01:00,57.0,40.0,29.67,SW,223,29.0,-999.0,53,-99.99,,,-99.99,,2013-05-14 14:01:00,
2013-05-14 08:11:00,57.0,40.0,29.67,SW,223,29.0,-999.0,53,-99.99,,,-99.99,,2013-05-14 14:11:00,
2013-05-14 08:22:00,57.0,40.0,29.68,WSW,250,24.0,-999.0,52,-99.99,,,-99.99,,2013-05-14 14:22:00,
2013-05-14 08:31:00,57.0,40.0,29.69,SW,227,23.0,-999.0,53,-99.99,,,-99.99,,2013-05-14 14:31:00,
2013-05-14 08:41:00,57.0,40.0,29.69,SW,227,23.0,-999.0,53,-99.99,,,-99.99,,2013-05-14 14:41:00,
2013-05-14 08:52:00,57.0,40.0,29.70,WSW,253,22.0,-999.0,53,-99.99,,,-99.99,,2013-05-14 14:52:00,
2013-05-14 09:01:00,58.0,41.0,29.71,SSW,212,21.0,-999.0,53,-99.99,,,-99.99,,2013-05-14 15:01:00,
2013-05-14 09:12:00,58.0,41.0,29.71,SSW,212,21.0,-999.0,53,-99.99,,,-99.99,,2013-05-14 15:12:00,
2013-05-14 09:22:00,58.0,41.0,29.72,West,268,21.0,-999.0,53,-99.99,,,-99.99,,2013-05-14 15:22:00,
2013-05-14 09:33:00,59.0,42.0,29.71,SW,235,23.0,-999.0,53,-99.99,,,-99.99,,2013-05-14 15:33:00,
2013-05-14 09:43:00,59.0,40.0,29.71,SW,232,26.0,-999.0,50,-99.99,,,-99.99,,2013-05-14 15:43:00,
2013-05-14 09:53:00,59.0,40.0,29.71,SW,232,26.0,-999.0,50,-99.99,,,-99.99,,2013-05-14 15:53:00,
2013-05-14 10:02:00,60.0,40.0,29.71,SW,229,28.0,-999.0,48,-99.99,,,-99.99,,2013-05-14 16:02:00,
2013-05-14 10:12:00,60.0,40.0,29.71,SW,229,28.0,-999.0,48,-99.99,,,-99.99,,2013-05-14 16:12:00,
2013-05-14 10:23:00,61.0,41.0,29.71,WSW,256,26.0,-999.0,48,-99.99,,,-99.99,,2013-05-14 16:23:00,
2013-05-14 10:33:00,62.0,41.0,29.72,WSW,250,23.0,-999.0,46,-99.99,,,-99.99,,2013-05-14 16:33:00,
2013-05-14 10:43:00,62.0,41.0,29.72,WSW,250,23.0,-999.0,46,-99.99,,,-99.99,,2013-05-14 16:43:00,
2013-05-14 10:54:00,62.0,40.0,29.72,SW,236,22.0,-999.0,44,-99.99,,,-99.99,,2013-05-14 16:54:00,
2013-05-14 11:03:00,63.0,41.0,29.72,SW,224,23.0,-999.0,44,-99.99,,,-99.99,,2013-05-14 17:03:00,
2013-05-14 11:13:00,63.0,41.0,29.72,SW,224,23.0,-999.0,44,-99.99,,,-99.99,,2013-05-14 17:13:00,
2013-05-14 11:24:00,64.0,42.0,29.72,West,268,20.0,-999.0,44,-99.99,,,-99.99,,2013-05-14 17:24:00,
2013-05-14 11:33:00,64.0,42.0,29.73,WSW,239,22.0,-999.0,44,-99.99,,,-99.99,,2013-05-14 17:33:00,
2013-05-14 11:43:00,64.0,42.0,29.73,WSW,239,22.0,-999.0,44,-99.99,,,-99.99,,2013-05-14 17:43:00,
2013-05-14 11:52:00,64.0,41.0,29.73,West,269,22.0,-999.0,43,-99.99,,,-99.99,,2013-05-14 17:52:00,
2013-05-14 12:02:00,65.0,43.0,29.74,West,275,23.0,-999.0,44,-99.99,,,-99.99,,2013-05-14 18:02:00,
2013-05-14 12:12:00,65.0,43.0,29.74,West,275,23.0,-999.0,44,-99.99,,,-99.99,,2013-05-14 18:12:00,
2013-05-14 12:22:00,65.0,39.0,29.74,SW,234,19.0,-999.0,39,-99.99,,,-99.99,,2013-05-14 18:22:00,
2013-05-14 12:32:00,66.0,40.0,29.74,SW,225,18.0,-999.0,38,-99.99,,,-99.99,,2013-05-14 18:32:00,
2013-05-14 12:42:00,66.0,40.0,29.74,SW,225,18.0,-999.0,38,-99.99,,,-99.99,,2013-05-14 18:42:00,
2013-05-14 12:52:00,66.0,41.0,29.74,SW,234,22.0,-999.0,40,-99.99,,,-99.99,,2013-05-14 18:52:00,
2013-05-14 13:01:00,66.0,40.0,29.74,SW,217,22.0,-999.0,38,-99.99,,,-99.99,,2013-05-14 19:01:00,
2013-05-14 13:12:00,66.0,40.0,29.74,SW,217,22.0,-999.0,38,-99.99,,,-99.99,,2013-05-14 19:12:00,
2013-05-14 13:22:00,67.0,40.0,29.74,SSW,211,21.0,-999.0,37,-99.99,,,-99.99,,2013-05-14 19:22:00,
2013-05-14 13:32:00,68.0,40.0,29.73,SW,232,16.0,-999.0,36,-99.99,,,-99.99,,2013-05-14 19:32:00,
2013-05-14 13:42:00,68.0,40.0,29.73,SW,232,16.0,-999.0,36,-99.99,,,-99.99,,2013-05-14 19:42:00,
2013-05-14 13:52:00,68.0,39.0,29.72,West,268,14.0,-999.0,34,-99.99,,,-99.99,,2013-05-14 19:52:00,
2013-05-14 14:02:00,68.0,39.0,29.73,SW,231,16.0,-999.0,34,-99.99,,,-99.99,,2013-05-14 20:02:00,
2013-05-14 14:11:00,68.0,39.0,29.73,SW,231,16.0,-999.0,34,-99.99,,,-99.99,,2013-05-14 20:11:00,
2013-05-14 14:23:00,69.0,39.0,29.72,SW,225,17.0,-999.0,34,-99.99,,,-99.99,,2013-05-14 20:23:00,
2013-05-14 14:33:00,70.0,38.0,29.72,West,271,16.0,-999.0,31,-99.99,,,-99.99,,2013-05-14 20:33:00,
2013-05-14 14:44:00,70.0,38.0,29.72,West,271,16.0,-999.0,31,-99.99,,,-99.99,,2013-05-14 20:44:00,
2013-05-14 14:52:00,69.0,36.0,29.72,SSW,199,14.0,-999.0,30,-99.99,,,-99.99,,2013-05-14 20:52:00,
2013-05-14 15:03:00,71.0,36.0,29.72,West,281,15.0,-999.0,28,-99.99,,,-99.99,,2013-05-14 21:03:00,
2013-05-14 15:12:00,71.0,36.0,29.72,West,281,15.0,-999.0,28,-99.99,,,-99.99,,2013-05-14 21:12:00,
2013-05-14 15:23:00,71.0,38.0,29.72,West,279,14.0,-999.0,30,-99.99,,,-99.99,,2013-05-14 21:23:00,
2013-05-14 15:33:00,70.0,36.0,29.71,SSW,208,15.0,-999.0,29,-99.99,,,-99.99,,2013-05-14 21:33:00,
2013-05-14 15:43:00,70.0,36.0,29.71,SSW,208,15.0,-999.0,29,-99.99,,,-99.99,,2013-05-14 21:43:00,
2013-05-14 15:52:00,69.0,35.0,29.71,SW,216,16.0,-999.0,28,-99.99,,,-99.99,,2013-05-14 21:52:00,
2013-05-14 16:03:00,70.0,37.0,29.70,West,264,16.0,-999.0,30,-99.99,,,-99.99,,2013-05-14 22:03:00,
2013-05-14 16:13:00,70.0,37.0,29.70,West,264,16.0,-999.0,30,-99.99,,,-99.99,,2013-05-14 22:13:00,
2013-05-14 16:24:00,70.0,35.0,29.71,SW,227,15.0,-999.0,28,-99.99,,,-99.99,,2013-05-14 22:24:00,
2013-05-14 16:34:00,70.0,35.0,29.70,SW,227,15.0,-999.0,28,-99.99,,,-99.99,,2013-05-14 22:34:00,
2013-05-14 16:45:00,70.0,35.0,29.70,SW,227,15.0,-999.0,28,-99.99,,,-99.99,,2013-05-14 22:45:00,
2013-05-14 16:54:00,69.0,34.0,29.70,SW,223,15.0,-999.0,27,-99.99,,,-99.99,,2013-05-14 22:54:00,
2013-05-14 17:03:00,70.0,35.0,29.71,SSW,207,15.0,-999.0,28,-99.99,,,-99.99,,2013-05-14 23:03:00,
2013-05-14 17:12:00,70.0,35.0,29.71,SSW,207,15.0,-999.0,28,-99.99,,,-99.99,,2013-05-14 23:12:00,
2013-05-14 17:21:00,69.0,35.0,29.71,SW,230,15.0,-999.0,28,-99.99,,,-99.99,,2013-05-14 23:21:00,
2013-05-14 17:32:00,69.0,33.0,29.71,SSW,213,16.0,-999.0,26,-99.99,,,-99.99,,2013-05-14 23:32:00,
2013-05-14 17:44:00,69.0,33.0,29.71,SSW,213,16.0,-999.0,26,-99.99,,,-99.99,,2013-05-14 23:44:00,
2013-05-14 17:52:00,69.0,33.0,29.72,SW,222,17.0,-999.0,26,-99.99,,,-99.99,,2013-05-14 23:52:00,
2013-05-14 18:02:00,69.0,34.0,29.72,WSW,244,14.0,-999.0,27,-99.99,,,-99.99,,2013-05-15 00:02:00,
2013-05-14 18:11:00,69.0,34.0,29.72,WSW,244,14.0,-999.0,27,-99.99,,,-99.99,,2013-05-15 00:11:00,
2013-05-14 18:21:00,69.0,35.0,29.72,West,271,8.0,-999.0,29,-99.99,,,-99.99,,2013-05-15 00:21:00,
2013-05-14 18:32:00,69.0,35.0,29.71,West,269,8.0,-999.0,28,-99.99,,,-99.99,,2013-05-15 00:32:00,
2013-05-14 18:42:00,69.0,35.0,29.71,West,269,8.0,-999.0,28,-99.99,,,-99.99,,2013-05-15 00:42:00,
2013-05-14 18:51:00,69.0,35.0,29.72,SW,234,11.0,-999.0,28,-99.99,,,-99.99,,2013-05-15 00:51:00,
2013-05-14 19:01:00,68.0,34.0,29.72,WSW,237,10.0,-999.0,28,-99.99,,,-99.99,,2013-05-15 01:01:00,
2013-05-14 19:11:00,68.0,34.0,29.72,WSW,237,10.0,-999.0,28,-99.99,,,-99.99,,2013-05-15 01:11:00,
2013-05-14 19:21:00,68.0,34.0,29.72,SW,236,11.0,-999.0,28,-99.99,,,-99.99,,2013-05-15 01:21:00,
2013-05-14 19:31:00,68.0,33.0,29.72,SW,227,11.0,-999.0,27,-99.99,,,-99.99,,2013-05-15 01:31:00,
2013-05-14 19:42:00,68.0,33.0,29.72,SW,227,11.0,-999.0,27,-99.99,,,-99.99,,2013-05-15 01:42:00,
2013-05-14 19:52:00,67.0,33.0,29.72,SW,223,10.0,-999.0,28,-99.99,,,-99.99,,2013-05-15 01:52:00,
2013-05-14 20:02:00,66.0,33.0,29.72,SW,220,8.0,-999.0,29,-99.99,,,-99.99,,2013-05-15 02:02:00,
2013-05-14 20:11:00,66.0,33.0,29.72,SW,220,8.0,-999.0,29,-99.99,,,-99.99,,2013-05-15 02:11:00,
2013-05-14 20:21:00,66.0,34.0,29.72,SW,219,7.0,-999.0,31,-99.99,,,-99.99,,2013-05-15 02:21:00,
2013-05-14 20:31:00,65.0,34.0,29.72,SW,216,7.0,-999.0,32,-99.99,,,-99.99,,2013-05-15 02:31:00,
2013-05-14 20:42:00,65.0,34.0,29.72,SW,216,7.0,-999.0,32,-99.99,,,-99.99,,2013-05-15 02:42:00,
2013-05-14 20:52:00,65.0,34.0,29.73,SW,227,10.0,-999.0,32,-99.99,,,-99.99,,2013-05-15 02:52:00,
2013-05-14 21:01:00,64.0,34.0,29.73,SSW,211,11.0,-999.0,32,-99.99,,,-99.99,,2013-05-15 03:01:00,
2013-05-14 21:12:00,64.0,34.0,29.73,SSW,211,11.0,-999.0,32,-99.99,,,-99.99,,2013-05-15 03:12:00,
2013-05-14 21:22:00,63.0,33.0,29.74,SW,227,9.0,-999.0,33,-99.99,,,-99.99,,2013-05-15 03:22:00,
2013-05-14 21:33:00,62.0,35.0,29.75,WSW,241,4.0,-999.0,36,-99.99,,,-99.99,,2013-05-15 03:33:00,
2013-05-14 21:44:00,62.0,35.0,29.75,West,259,4.0,-999.0,36,-99.99,,,-99.99,,2013-05-15 03:44:00,
2013-05-14 21:54:00,62.0,35.0,29.75,West,259,4.0,-999.0,36,-99.99,,,-99.99,,2013-05-15 03:54:00,
2013-05-14 22:03:00,60.0,35.0,29.76,West,276,6.0,-999.0,39,-99.99,,,-99.99,,2013-05-15 04:03:00,
2013-05-14 22:12:00,60.0,35.0,29.76,West,276,6.0,-999.0,39,-99.99,,,-99.99,,2013-05-15 04:12:00,
2013-05-14 22:24:00,59.0,36.0,29.76,West,281,5.0,-999.0,42,-99.99,,,-99.99,,2013-05-15 04:24:00,
2013-05-14 22:33:00,58.0,37.0,29.77,West,280,7.0,-999.0,45,-99.99,,,-99.99,,2013-05-15 04:33:00,
2013-05-14 22:42:00,58.0,37.0,29.77,West,280,7.0,-999.0,45,-99.99,,,-99.99,,2013-05-15 04:42:00,
2013-05-14 22:52:00,59.0,37.0,29.77,West,271,9.0,-999.0,43,-99.99,,,-99.99,,2013-05-15 04:52:00,
2013-05-14 23:02:00,57.0,38.0,29.77,West,273,7.0,-999.0,48,-99.99,,,-99.99,,2013-05-15 05:02:00,
2013-05-14 23:12:00,57.0,38.0,29.77,West,273,7.0,-999.0,48,-99.99,,,-99.99,,2013-05-15 05:12:00,
2013-05-14 23:22:00,57.0,38.0,29.77,West,273,6.0,-999.0,49,-99.99,,,-99.99,,2013-05-15 05:22:00,
2013-05-14 23:32:00,56.0,39.0,29.78,WNW,296,8.0,-999.0,52,-99.99,,,-99.99,,2013-05-15 05:32:00,
2013-05-14 23:52:00,56.0,37.0,29.80,West,270,11.0,-999.0,49,-99.99,,,-99.99,,2013-05-15 05:52:00,